Colwich, United Kingdom
Current Conditions -  °F | °C
As of 4:50 AM on Wednesday 22 Oct 2014 (Local Time) from EGBB Reporting Station
Few Clouds Few Clouds  
Wind Chill: 43°   Ceiling: Unl
Heat Index: 46°   Visibility: 6mi
Dew Point: 39°   Wind: 7mph
Humidity: 76%   Direction: 250°WSW
Pressure: 30.18"   Gusts: NA
Location:  52.79°N, 1.98°W
Report Text: EGBB 220350Z 25006KT 9999 FEW040 08/04 Q1022
Loading
Personal Weather Stations






























Interactive Weather Map
Tropical Storm Tracking
New forecast layout! Learn more

10-Day Weather Forecast

Advertisements
Track Severe Weather on mobile